Clark, Minnesota
Current Conditions -  °F | °C
As of 8:46 PM on Friday 21 Nov 2014 (Local Time) from KHZX Reporting Station
Scattered Clouds Scattered Clouds  
Wind Chill: 19°   Ceiling: Unl
Heat Index: 30°   Visibility: 10mi
Dew Point: 23°   Wind: 15mph
Humidity: 75%   Direction: 200°SSW
Pressure: 29.78"   Gusts: 22mph
Location:  46.6404°N, 93.1222°W
Report Text: KHZX 220246Z AUTO 20013G19KT 10SM SCT110 M01/M05 A2978 RMK AO2
Loading
Personal Weather Stations






























Interactive Weather Map New forecast layout! Learn more

10-Day Weather Forecast

Advertisements
Track Severe Weather on mobile